createdAt,value
2018-07-31T00:00:14.620Z,100840.22
2018-07-31T00:02:42.951Z,100840.76
2018-07-31T00:05:11.473Z,100842.10
2018-07-31T00:07:39.823Z,100843.67
2018-07-31T00:10:08.160Z,100842.86
2018-07-31T00:12:36.524Z,100845.27
2018-07-31T00:15:07.452Z,100848.19
2018-07-31T00:17:35.864Z,100850.00
2018-07-31T00:20:04.200Z,100847.28
2018-07-31T00:22:32.732Z,100845.00
2018-07-31T00:25:01.070Z,100851.98
2018-07-31T00:27:29.467Z,100847.95
2018-07-31T00:29:57.809Z,100848.88
2018-07-31T00:32:26.215Z,100851.17
2018-07-31T00:34:55.076Z,100854.80
2018-07-31T00:37:23.640Z,100853.64
2018-07-31T00:39:52.025Z,100848.98
2018-07-31T00:42:20.376Z,100856.64
2018-07-31T00:44:48.830Z,100850.66
2018-07-31T00:47:17.155Z,100856.86
2018-07-31T00:49:45.494Z,100844.47
2018-07-31T00:52:14.042Z,100851.20
2018-07-31T00:54:42.414Z,100850.59
2018-07-31T00:57:10.716Z,100847.09
2018-07-31T00:59:39.064Z,100848.69
2018-07-31T01:02:07.462Z,100847.28
2018-07-31T01:04:35.796Z,100843.17
2018-07-31T01:07:04.144Z,100843.17
2018-07-31T01:09:32.471Z,100835.82
2018-07-31T01:12:00.839Z,100826.24
2018-07-31T01:14:29.439Z,100825.08
2018-07-31T01:16:57.832Z,100823.39
2018-07-31T01:19:26.195Z,100824.45
2018-07-31T01:21:54.808Z,100826.55
2018-07-31T01:24:23.281Z,100828.06
2018-07-31T01:26:51.643Z,100827.72
2018-07-31T01:29:19.969Z,100828.77
2018-07-31T01:31:48.629Z,100824.21
2018-07-31T01:34:16.944Z,100823.40
2018-07-31T01:36:45.402Z,100825.42
2018-07-31T01:39:13.794Z,100828.36
2018-07-31T01:41:42.389Z,100819.94
2018-07-31T01:44:10.752Z,100824.44
2018-07-31T01:46:39.113Z,100826.77
2018-07-31T01:49:07.499Z,100826.94
2018-07-31T01:51:35.884Z,100837.02
2018-07-31T01:54:11.104Z,100830.48
2018-07-31T01:56:39.476Z,100827.97
2018-07-31T01:59:07.851Z,100830.65
2018-07-31T02:01:36.249Z,100828.98
2018-07-31T02:04:04.579Z,100823.50
2018-07-31T02:06:32.932Z,100828.27
2018-07-31T02:09:01.381Z,100828.73
2018-07-31T02:11:29.704Z,100830.56
2018-07-31T02:13:58.030Z,100828.76
2018-07-31T02:16:26.333Z,100833.53
2018-07-31T02:18:54.652Z,100833.24
2018-07-31T02:21:22.994Z,100829.14
2018-07-31T02:23:51.312Z,100824.58
2018-07-31T02:26:19.636Z,100825.92
2018-07-31T02:28:48.179Z,100827.27
2018-07-31T02:31:16.517Z,100829.50
2018-07-31T02:33:44.949Z,100821.30
2018-07-31T02:36:13.392Z,100832.36
2018-07-31T02:38:41.764Z,100826.39
2018-07-31T02:41:10.071Z,100829.78
2018-07-31T02:43:38.433Z,100825.64
2018-07-31T02:46:06.797Z,100825.56
2018-07-31T02:48:35.137Z,100825.20
2018-07-31T02:51:03.495Z,100836.69
2018-07-31T02:53:31.863Z,100844.17
2018-07-31T02:56:00.233Z,100843.80
2018-07-31T02:58:28.621Z,100837.83
2018-07-31T03:00:56.988Z,100837.47
2018-07-31T03:03:25.332Z,100848.45
2018-07-31T03:05:54.125Z,100844.42
2018-07-31T03:08:22.487Z,100844.63
2018-07-31T03:10:50.947Z,100839.79
2018-07-31T03:13:19.308Z,100848.66
2018-07-31T03:15:47.635Z,100848.58
2018-07-31T03:18:16.000Z,100848.01
2018-07-31T03:20:44.366Z,100850.09
2018-07-31T03:23:12.741Z,100847.64
2018-07-31T03:25:41.088Z,100854.03
2018-07-31T03:28:09.493Z,100848.67
2018-07-31T03:30:37.807Z,100850.77
2018-07-31T03:33:06.273Z,100855.86
2018-07-31T03:35:34.588Z,100849.52
2018-07-31T03:38:03.123Z,100854.88
2018-07-31T03:40:31.565Z,100854.52
2018-07-31T03:42:59.935Z,100855.70
2018-07-31T03:45:29.223Z,100855.33
2018-07-31T03:47:57.547Z,100855.04
2018-07-31T03:50:25.908Z,100860.64
2018-07-31T03:52:54.245Z,100861.30
2018-07-31T03:55:22.623Z,100861.98
2018-07-31T03:57:50.944Z,100868.08
2018-07-31T04:00:19.307Z,100864.58
2018-07-31T04:02:47.667Z,100874.78
2018-07-31T04:05:16.024Z,100866.82
2018-07-31T04:07:44.345Z,100871.95
2018-07-31T04:10:12.712Z,100863.98
2018-07-31T04:12:41.054Z,100866.52
2018-07-31T04:15:09.403Z,100869.12
2018-07-31T04:17:37.771Z,100871.96
2018-07-31T04:20:06.307Z,100869.04
2018-07-31T04:22:34.790Z,100875.55
2018-07-31T04:25:03.119Z,100870.46
2018-07-31T04:27:31.469Z,100868.96
2018-07-31T04:29:59.967Z,100875.06
2018-07-31T04:32:28.293Z,100871.67
2018-07-31T04:34:56.639Z,100875.33
2018-07-31T04:37:24.982Z,100874.70
2018-07-31T04:39:53.353Z,100875.66
2018-07-31T04:42:21.749Z,100877.30
2018-07-31T04:44:50.081Z,100877.10
2018-07-31T04:47:18.399Z,100884.96
2018-07-31T04:49:46.739Z,100890.27
2018-07-31T04:52:15.055Z,100896.08
2018-07-31T04:54:43.379Z,100898.48
2018-07-31T04:57:11.689Z,100898.89
2018-07-31T04:59:40.040Z,100904.59
2018-07-31T05:02:08.394Z,100898.33
2018-07-31T05:04:36.730Z,100901.50
2018-07-31T05:07:05.299Z,100899.83
2018-07-31T05:09:33.750Z,100899.09
2018-07-31T05:12:02.108Z,100892.17
2018-07-31T05:14:30.439Z,100885.83
2018-07-31T05:16:58.812Z,100893.70
2018-07-31T05:19:27.135Z,100885.98
2018-07-31T05:21:55.507Z,100889.30
2018-07-31T05:24:23.842Z,100884.32
2018-07-31T05:26:52.136Z,100885.25
2018-07-31T05:29:20.535Z,100881.37
2018-07-31T05:31:48.876Z,100887.84
2018-07-31T05:34:17.255Z,100895.88
2018-07-31T05:36:45.594Z,100894.03
2018-07-31T05:39:13.977Z,100893.06
2018-07-31T05:41:42.346Z,100895.69
2018-07-31T05:44:10.846Z,100901.77
2018-07-31T05:46:39.243Z,100909.63
2018-07-31T05:49:07.637Z,100911.69
2018-07-31T05:51:36.161Z,100908.50
2018-07-31T05:54:04.568Z,100912.08
2018-07-31T05:56:32.905Z,100913.84
2018-07-31T05:59:01.231Z,100916.66
2018-07-31T06:01:29.604Z,100917.23
2018-07-31T06:03:57.908Z,100919.11
2018-07-31T06:06:26.364Z,100919.94
2018-07-31T06:08:54.698Z,100925.34
2018-07-31T06:11:23.072Z,100917.47
2018-07-31T06:13:51.439Z,100919.02
2018-07-31T06:16:19.801Z,100911.37
2018-07-31T06:18:48.152Z,100916.43
2018-07-31T06:21:16.471Z,100912.25
2018-07-31T06:23:44.839Z,100916.28
2018-07-31T06:26:13.129Z,100920.02
2018-07-31T06:28:41.495Z,100921.30
2018-07-31T06:31:09.818Z,100924.51
2018-07-31T06:33:38.177Z,100927.47
2018-07-31T06:36:06.523Z,100929.34
2018-07-31T06:38:34.907Z,100927.99
2018-07-31T06:41:03.246Z,100923.04
2018-07-31T06:43:31.732Z,100930.00
2018-07-31T06:46:00.057Z,100931.10
2018-07-31T06:48:28.384Z,100933.62
2018-07-31T06:50:56.763Z,100932.22
2018-07-31T06:53:25.336Z,100938.50
2018-07-31T06:55:53.684Z,100936.36
2018-07-31T06:58:22.026Z,100939.72
2018-07-31T07:00:50.460Z,100939.86
2018-07-31T07:03:18.789Z,100936.20
2018-07-31T07:05:47.136Z,100941.35
2018-07-31T07:08:15.489Z,100945.45
2018-07-31T07:10:43.844Z,100945.73
2018-07-31T07:13:12.237Z,100946.50
2018-07-31T07:15:40.604Z,100947.84
2018-07-31T07:18:08.989Z,100945.08
2018-07-31T07:20:37.277Z,100941.25
2018-07-31T07:23:05.680Z,100945.30
2018-07-31T07:25:33.986Z,100942.83
2018-07-31T07:28:02.485Z,100941.16
2018-07-31T07:30:30.756Z,100943.03
2018-07-31T07:32:59.061Z,100940.06
2018-07-31T07:35:27.390Z,100943.34
2018-07-31T07:37:55.714Z,100949.63
2018-07-31T07:40:24.076Z,100954.53
2018-07-31T07:42:52.426Z,100942.42
2018-07-31T07:45:20.783Z,100936.25
2018-07-31T07:47:49.192Z,100933.84
2018-07-31T07:50:17.683Z,100937.88
2018-07-31T07:52:46.025Z,100938.72
2018-07-31T07:55:14.487Z,100944.97
2018-07-31T07:57:42.851Z,100942.55
2018-07-31T08:00:11.783Z,100946.95
2018-07-31T08:02:40.113Z,100946.76
2018-07-31T08:05:08.956Z,100951.12
2018-07-31T08:07:37.344Z,100954.12
2018-07-31T08:10:06.117Z,100953.06
2018-07-31T08:12:34.488Z,100959.05
2018-07-31T08:15:02.893Z,100951.46
2018-07-31T08:17:31.223Z,100954.98
2018-07-31T08:19:59.556Z,100947.09
2018-07-31T08:22:27.931Z,100951.16
2018-07-31T08:24:56.311Z,100949.00
2018-07-31T08:27:24.657Z,100949.82
2018-07-31T08:29:53.059Z,100952.81
2018-07-31T08:32:21.408Z,100945.47
2018-07-31T08:34:49.788Z,100932.98
2018-07-31T08:37:18.136Z,100939.52
2018-07-31T08:39:46.480Z,100937.32
2018-07-31T08:42:14.889Z,100941.14
2018-07-31T08:44:43.274Z,100936.50
2018-07-31T08:47:11.677Z,100935.41
2018-07-31T08:49:40.024Z,100932.96
2018-07-31T08:52:08.393Z,100950.84
2018-07-31T08:54:36.724Z,100945.70
2018-07-31T08:57:05.109Z,100952.48
2018-07-31T08:59:33.556Z,100952.77
2018-07-31T09:02:01.975Z,100954.45
2018-07-31T09:04:30.300Z,100954.17
2018-07-31T09:06:58.633Z,100959.02
2018-07-31T09:09:26.958Z,100953.02
2018-07-31T09:11:55.294Z,100954.09
2018-07-31T09:14:23.629Z,100956.01
2018-07-31T09:16:52.033Z,100949.99
2018-07-31T09:19:20.347Z,100946.72
2018-07-31T09:21:48.689Z,100941.58
2018-07-31T09:24:17.067Z,100941.87
2018-07-31T09:26:45.373Z,100939.96
2018-07-31T09:29:13.751Z,100945.62
2018-07-31T09:31:42.942Z,100950.67
2018-07-31T09:34:11.295Z,100948.41
2018-07-31T09:36:39.642Z,100952.13
2018-07-31T09:39:09.562Z,100951.52
2018-07-31T09:41:37.965Z,100956.70
2018-07-31T09:44:06.725Z,100959.73
2018-07-31T09:46:35.093Z,100962.47
2018-07-31T09:49:03.461Z,100959.50
2018-07-31T09:51:31.852Z,100967.41
2018-07-31T09:54:00.235Z,100969.27
2018-07-31T09:56:28.570Z,100963.27
2018-07-31T09:58:57.271Z,100964.86
2018-07-31T10:01:25.632Z,100963.27
2018-07-31T10:03:53.937Z,100961.47
2018-07-31T10:06:22.299Z,100957.69
2018-07-31T10:08:50.632Z,100962.34
2018-07-31T10:11:19.012Z,100960.17
2018-07-31T10:13:47.351Z,100959.05
2018-07-31T10:16:15.730Z,100968.45
2018-07-31T10:18:44.058Z,100961.58
2018-07-31T10:21:12.376Z,100961.77
2018-07-31T10:23:40.734Z,100965.34
2018-07-31T10:26:09.099Z,100961.02
2018-07-31T10:28:37.459Z,100956.72
2018-07-31T10:31:05.777Z,100957.25
2018-07-31T10:33:34.122Z,100962.34
2018-07-31T10:36:02.475Z,100961.15
2018-07-31T10:38:30.799Z,100955.08
2018-07-31T10:40:59.150Z,100965.70
2018-07-31T10:43:27.474Z,100959.97
2018-07-31T10:45:55.857Z,100959.92
2018-07-31T10:48:24.272Z,100953.83
2018-07-31T10:50:52.621Z,100963.59
2018-07-31T10:53:20.981Z,100957.61
2018-07-31T10:55:49.436Z,100958.47
2018-07-31T10:58:17.775Z,100965.08
2018-07-31T11:00:46.134Z,100965.16
2018-07-31T11:03:14.547Z,100971.18
2018-07-31T11:05:42.819Z,100957.84
2018-07-31T11:08:11.159Z,100961.88
2018-07-31T11:10:39.533Z,100972.53
2018-07-31T11:13:07.939Z,100965.48
2018-07-31T11:15:36.252Z,100970.02
2018-07-31T11:18:04.592Z,100966.41
2018-07-31T11:20:32.979Z,100970.66
2018-07-31T11:23:01.328Z,100972.72
2018-07-31T11:25:29.705Z,100970.36
2018-07-31T11:27:58.048Z,100971.53
2018-07-31T11:30:26.401Z,100979.67
2018-07-31T11:32:54.821Z,100983.32
2018-07-31T11:35:23.174Z,100981.55
2018-07-31T11:37:51.549Z,100989.34
2018-07-31T11:40:19.993Z,100978.02
2018-07-31T11:42:48.369Z,100979.98
2018-07-31T11:45:16.706Z,100983.84
2018-07-31T11:47:45.060Z,100987.92
2018-07-31T11:50:13.517Z,100980.86
2018-07-31T11:52:41.829Z,100984.94
2018-07-31T11:55:10.195Z,100992.61
2018-07-31T11:57:38.540Z,100989.59
2018-07-31T12:00:09.546Z,100983.59
2018-07-31T12:02:37.857Z,100978.94
2018-07-31T12:05:06.574Z,100981.42
2018-07-31T12:07:34.999Z,100981.98
2018-07-31T12:10:03.449Z,100983.34
2018-07-31T12:12:31.783Z,100984.44
2018-07-31T12:15:00.260Z,100976.50
2018-07-31T12:17:28.689Z,100984.14
2018-07-31T12:19:57.045Z,100976.29
2018-07-31T12:22:25.352Z,100980.12
2018-07-31T12:24:53.742Z,100974.30
2018-07-31T12:27:22.089Z,100969.55
2018-07-31T12:29:50.417Z,100976.82
2018-07-31T12:32:18.811Z,100983.57
2018-07-31T12:34:47.153Z,100976.50
2018-07-31T12:37:15.465Z,100984.22
2018-07-31T12:39:43.823Z,100976.89
2018-07-31T12:42:12.161Z,100984.44
2018-07-31T12:44:40.502Z,100975.13
2018-07-31T12:47:08.925Z,100984.34
2018-07-31T12:49:37.343Z,100985.05
2018-07-31T12:52:05.689Z,100983.48
2018-07-31T12:54:34.000Z,100977.17
2018-07-31T12:57:02.343Z,100977.86
2018-07-31T12:59:30.693Z,100980.29
2018-07-31T13:01:59.020Z,100992.94
2018-07-31T13:04:27.318Z,100977.17
2018-07-31T13:06:55.666Z,100978.20
2018-07-31T13:09:24.017Z,100986.61
2018-07-31T13:11:52.482Z,100983.30
2018-07-31T13:14:20.824Z,100982.16
2018-07-31T13:16:49.197Z,100980.41
2018-07-31T13:19:17.631Z,100987.09
2018-07-31T13:21:46.284Z,100981.22
2018-07-31T13:24:14.635Z,100974.16
2018-07-31T13:26:42.971Z,100968.46
2018-07-31T13:29:11.335Z,100971.16
2018-07-31T13:31:39.635Z,100979.62
2018-07-31T13:34:07.990Z,100977.98
2018-07-31T13:36:36.411Z,100977.98
2018-07-31T13:39:07.887Z,100979.92
2018-07-31T13:41:36.328Z,100978.92
2018-07-31T13:44:05.385Z,100973.78
2018-07-31T13:46:33.672Z,100977.95
2018-07-31T13:49:02.086Z,100980.95
2018-07-31T13:51:30.633Z,100973.81
2018-07-31T13:53:58.960Z,100967.73
2018-07-31T13:56:27.639Z,100974.77
2018-07-31T13:58:56.099Z,100981.31
2018-07-31T14:01:24.409Z,100984.02
2018-07-31T14:03:52.917Z,100982.74
2018-07-31T14:06:21.288Z,100987.77
2018-07-31T14:08:49.626Z,100985.59
2018-07-31T14:11:18.043Z,100987.09
2018-07-31T14:13:46.443Z,100991.27
2018-07-31T14:16:14.712Z,100993.27
2018-07-31T14:18:43.020Z,100995.43
2018-07-31T14:21:11.528Z,100997.78
2018-07-31T14:23:39.960Z,100992.30
2018-07-31T14:26:08.286Z,100991.77
2018-07-31T14:28:36.669Z,100985.81
2018-07-31T14:31:05.022Z,100984.23
2018-07-31T14:33:33.332Z,100985.41
2018-07-31T14:36:01.662Z,100991.41
2018-07-31T14:38:30.005Z,100991.91
2018-07-31T14:40:58.432Z,100988.37
2018-07-31T14:43:26.743Z,100985.09
2018-07-31T14:45:55.078Z,100999.20
2018-07-31T14:48:23.409Z,101000.33
2018-07-31T14:50:51.732Z,100996.80
2018-07-31T14:53:20.187Z,100996.25
2018-07-31T14:55:48.540Z,101011.78
2018-07-31T14:58:16.895Z,101004.72
2018-07-31T15:00:45.247Z,101013.99
2018-07-31T15:03:13.727Z,101021.06
2018-07-31T15:05:42.077Z,101019.19
2018-07-31T15:08:10.396Z,101006.96
2018-07-31T15:10:38.772Z,101009.17
2018-07-31T15:13:07.054Z,101014.56
2018-07-31T15:15:35.396Z,101006.33
2018-07-31T15:18:03.719Z,101013.63
2018-07-31T15:20:32.091Z,101007.23
2018-07-31T15:23:00.452Z,101004.95
2018-07-31T15:25:28.807Z,101013.86
2018-07-31T15:27:57.195Z,101012.19
2018-07-31T15:30:25.586Z,101016.32
2018-07-31T15:32:53.934Z,101018.07
2018-07-31T15:35:22.283Z,101020.41
2018-07-31T15:37:50.672Z,101016.16
2018-07-31T15:40:19.088Z,101018.95
2018-07-31T15:42:47.456Z,101015.47
2018-07-31T15:45:15.747Z,101019.92
2018-07-31T15:47:44.128Z,101022.18
2018-07-31T15:50:12.435Z,101019.51
2018-07-31T15:52:40.782Z,101026.86
2018-07-31T15:55:09.383Z,101014.94
2018-07-31T15:57:37.728Z,101025.55
2018-07-31T16:00:08.357Z,101028.30
2018-07-31T16:02:36.888Z,101026.34
2018-07-31T16:05:05.695Z,101020.56
2018-07-31T16:07:34.056Z,101015.07
2018-07-31T16:10:02.410Z,101015.28
2018-07-31T16:12:30.734Z,101022.88
2018-07-31T16:14:59.068Z,101022.02
2018-07-31T16:17:27.422Z,101020.36
2018-07-31T16:19:56.063Z,101030.73
2018-07-31T16:22:24.981Z,101027.48
2018-07-31T16:24:53.499Z,101022.08
2018-07-31T16:27:21.816Z,101024.25
2018-07-31T16:29:50.165Z,101029.98
2018-07-31T16:32:18.563Z,101026.46
2018-07-31T16:34:46.888Z,101029.73
2018-07-31T16:37:15.271Z,101038.75
2018-07-31T16:39:43.668Z,101034.67
2018-07-31T16:42:12.020Z,101031.95
2018-07-31T16:44:40.410Z,101039.30
2018-07-31T16:47:08.987Z,101032.55
2018-07-31T16:49:37.347Z,101036.89
2018-07-31T16:52:05.706Z,101045.86
2018-07-31T16:54:34.182Z,101050.81
2018-07-31T16:57:02.828Z,101044.84
2018-07-31T16:59:31.113Z,101047.58
2018-07-31T17:01:59.453Z,101047.58
2018-07-31T17:04:27.847Z,101059.03
2018-07-31T17:06:56.469Z,101057.92
2018-07-31T17:09:24.831Z,101062.55
2018-07-31T17:11:53.213Z,101061.18
2018-07-31T17:14:21.636Z,101063.09
2018-07-31T17:16:50.138Z,101055.19
2018-07-31T17:19:18.511Z,101057.09
2018-07-31T17:21:46.851Z,101058.47
2018-07-31T17:24:15.644Z,101058.19
2018-07-31T17:26:44.082Z,101056.82
2018-07-31T17:29:12.439Z,101062.53
2018-07-31T17:31:40.753Z,101065.23
2018-07-31T17:34:09.066Z,101064.42
2018-07-31T17:36:37.399Z,101070.93
2018-07-31T17:39:08.140Z,101076.34
2018-07-31T17:41:36.622Z,101070.38
2018-07-31T17:44:05.403Z,101077.64
2018-07-31T17:46:33.905Z,101077.11
2018-07-31T17:49:02.344Z,101076.84
2018-07-31T17:51:30.720Z,101089.00
2018-07-31T17:53:59.071Z,101082.73
2018-07-31T17:56:27.475Z,101085.43
2018-07-31T17:58:55.828Z,101090.83
2018-07-31T18:01:24.239Z,101095.38
2018-07-31T18:03:52.693Z,101099.97
2018-07-31T18:06:21.074Z,101106.98
2018-07-31T18:08:49.416Z,101111.55
2018-07-31T18:11:17.960Z,101111.80
2018-07-31T18:13:46.324Z,101113.38
2018-07-31T18:16:14.711Z,101113.91
2018-07-31T18:18:43.095Z,101116.83
2018-07-31T18:21:11.580Z,101120.55
2018-07-31T18:23:40.315Z,101120.80
2018-07-31T18:26:08.684Z,101126.74
2018-07-31T18:28:37.217Z,101127.80
2018-07-31T18:31:05.822Z,101134.48
2018-07-31T18:33:34.157Z,101137.38
2018-07-31T18:36:02.985Z,101143.26
2018-07-31T18:38:31.726Z,101142.92
2018-07-31T18:41:00.139Z,101150.98
2018-07-31T18:43:28.598Z,101147.94
2018-07-31T18:45:56.966Z,101154.09
2018-07-31T18:48:25.578Z,101154.88
2018-07-31T18:50:54.200Z,101164.86
2018-07-31T18:53:22.759Z,101168.03
2018-07-31T18:55:51.365Z,101171.79
2018-07-31T18:58:19.718Z,101176.39
2018-07-31T19:00:48.171Z,101176.08
2018-07-31T19:03:16.489Z,101176.51
2018-07-31T19:05:44.817Z,101183.73
2018-07-31T19:08:13.175Z,101193.39
2018-07-31T19:10:41.546Z,101191.64
2018-07-31T19:13:09.976Z,101199.41
2018-07-31T19:15:38.467Z,101206.39
2018-07-31T19:18:06.898Z,101213.11
2018-07-31T19:20:35.256Z,101213.59
2018-07-31T19:23:03.804Z,101221.61
2018-07-31T19:25:32.214Z,101227.47
2018-07-31T19:28:00.636Z,101228.52
2018-07-31T19:30:28.902Z,101228.50
2018-07-31T19:32:57.262Z,101231.06
2018-07-31T19:35:25.834Z,101238.05
2018-07-31T19:37:54.231Z,101233.61
2018-07-31T19:40:23.037Z,101239.19
2018-07-31T19:42:51.463Z,101243.89
2018-07-31T19:45:19.869Z,101249.98
2018-07-31T19:47:48.552Z,101249.97
2018-07-31T19:50:16.981Z,101249.91
2018-07-31T19:52:45.615Z,101255.80
2018-07-31T19:55:13.945Z,101245.73
2018-07-31T19:57:42.339Z,101255.09
2018-07-31T20:00:10.694Z,101252.84
2018-07-31T20:02:39.059Z,101257.37
2018-07-31T20:05:07.679Z,101262.98
2018-07-31T20:07:36.072Z,101268.05
2018-07-31T20:10:04.873Z,101271.81
2018-07-31T20:12:33.208Z,101275.02
2018-07-31T20:15:01.663Z,101279.27
2018-07-31T20:17:30.057Z,101284.65
2018-07-31T20:19:58.433Z,101286.22
2018-07-31T20:22:26.758Z,101289.69
2018-07-31T20:24:55.135Z,101301.27
2018-07-31T20:27:23.513Z,101298.77
2018-07-31T20:29:52.064Z,101299.25
2018-07-31T20:32:20.558Z,101296.20
2018-07-31T20:34:48.930Z,101297.91
2018-07-31T20:37:17.244Z,101296.66
2018-07-31T20:39:45.631Z,101296.54
2018-07-31T20:42:14.006Z,101299.49
2018-07-31T20:44:42.461Z,101303.70
2018-07-31T20:47:10.921Z,101306.84
2018-07-31T20:49:39.267Z,101304.92
2018-07-31T20:52:07.633Z,101306.73
2018-07-31T20:54:35.984Z,101318.60
2018-07-31T20:57:04.383Z,101313.42
2018-07-31T20:59:32.703Z,101317.06
2018-07-31T21:02:01.043Z,101323.17
2018-07-31T21:04:29.390Z,101320.34
2018-07-31T21:06:57.762Z,101323.19
2018-07-31T21:09:26.113Z,101321.00
2018-07-31T21:11:54.655Z,101323.19
2018-07-31T21:14:23.072Z,101319.30
2018-07-31T21:16:51.396Z,101329.20
2018-07-31T21:19:19.768Z,101329.45
2018-07-31T21:21:48.100Z,101334.70
2018-07-31T21:24:16.447Z,101329.95
2018-07-31T21:26:44.754Z,101331.48
2018-07-31T21:29:13.163Z,101327.08
2018-07-31T21:31:41.508Z,101341.02
2018-07-31T21:34:09.829Z,101343.89
2018-07-31T21:36:38.172Z,101339.17
2018-07-31T21:39:09.664Z,101353.47
2018-07-31T21:41:38.164Z,101353.25
2018-07-31T21:44:06.540Z,101351.55
2018-07-31T21:46:34.918Z,101345.05
2018-07-31T21:49:03.259Z,101352.17
2018-07-31T21:51:31.634Z,101356.38
2018-07-31T21:53:59.957Z,101359.00
2018-07-31T21:56:28.288Z,101359.05
2018-07-31T21:58:56.632Z,101357.27
2018-07-31T22:01:24.989Z,101366.46
2018-07-31T22:03:53.328Z,101366.27
2018-07-31T22:06:21.642Z,101372.34
2018-07-31T22:08:50.094Z,101378.34
2018-07-31T22:11:18.494Z,101377.94
2018-07-31T22:13:46.798Z,101381.08
2018-07-31T22:16:15.224Z,101379.20
2018-07-31T22:18:43.513Z,101381.73
2018-07-31T22:21:11.884Z,101388.91
2018-07-31T22:23:40.221Z,101382.33
2018-07-31T22:26:08.559Z,101393.34
2018-07-31T22:28:36.928Z,101391.91
2018-07-31T22:31:05.310Z,101397.73
2018-07-31T22:33:33.668Z,101393.12
2018-07-31T22:36:01.990Z,101402.75
2018-07-31T22:38:30.318Z,101404.01
2018-07-31T22:40:58.642Z,101403.63
2018-07-31T22:43:27.054Z,101408.73
2018-07-31T22:45:55.320Z,101404.31
2018-07-31T22:48:23.678Z,101404.75
2018-07-31T22:50:52.083Z,101409.38
2018-07-31T22:53:20.449Z,101408.30
2018-07-31T22:55:48.780Z,101415.94
2018-07-31T22:58:17.119Z,101411.63
2018-07-31T23:00:45.461Z,101420.05
2018-07-31T23:03:13.789Z,101418.96
2018-07-31T23:05:42.113Z,101415.98
2018-07-31T23:08:10.450Z,101416.41
2018-07-31T23:10:38.831Z,101421.70
2018-07-31T23:13:07.177Z,101423.71
2018-07-31T23:15:35.590Z,101426.22
2018-07-31T23:18:03.950Z,101418.91
2018-07-31T23:20:32.309Z,101422.02
2018-07-31T23:23:00.605Z,101421.11
2018-07-31T23:25:28.947Z,101421.55
2018-07-31T23:27:57.266Z,101422.73
2018-07-31T23:30:25.565Z,101421.43
2018-07-31T23:32:53.920Z,101420.08
2018-07-31T23:35:22.248Z,101415.95
2018-07-31T23:37:50.715Z,101421.23
2018-07-31T23:40:19.026Z,101417.73
2018-07-31T23:42:47.338Z,101420.32
2018-07-31T23:45:15.691Z,101423.77
2018-07-31T23:47:44.027Z,101422.91
2018-07-31T23:50:12.394Z,101427.04
2018-07-31T23:52:40.780Z,101427.04
2018-07-31T23:55:09.233Z,101427.04
2018-07-31T23:57:37.559Z,101435.72
